createdAt,value
2023-04-21T00:02:07.687Z,66.06
2023-04-21T00:04:36.063Z,66.45
2023-04-21T00:07:04.606Z,66.19
2023-04-21T00:09:32.248Z,66.37
2023-04-21T00:12:00.032Z,66.67
2023-04-21T00:14:27.688Z,66.87
2023-04-21T00:16:55.391Z,66.77
2023-04-21T00:19:24.136Z,66.80
2023-04-21T00:21:51.801Z,67.02
2023-04-21T00:24:19.465Z,67.04
2023-04-21T00:26:47.124Z,67.14
2023-04-21T00:29:14.907Z,67.14
2023-04-21T00:31:42.580Z,67.28
2023-04-21T00:34:10.317Z,66.92
2023-04-21T00:36:37.981Z,66.74
2023-04-21T00:39:05.850Z,66.90
2023-04-21T00:41:34.337Z,66.24
2023-04-21T00:44:02.110Z,66.16
2023-04-21T00:46:29.869Z,65.99
2023-04-21T00:48:57.503Z,66.07
2023-04-21T00:51:25.176Z,65.87
2023-04-21T00:53:52.942Z,66.00
2023-04-21T00:56:21.830Z,66.42
2023-04-21T00:58:50.826Z,66.48
2023-04-21T01:01:18.510Z,66.83
2023-04-21T01:03:47.911Z,66.99
2023-04-21T01:06:15.856Z,67.26
2023-04-21T01:08:43.618Z,67.13
2023-04-21T01:11:11.384Z,66.95
2023-04-21T01:13:39.150Z,67.44
2023-04-21T01:16:07.093Z,67.53
2023-04-21T01:18:34.986Z,67.74
2023-04-21T01:21:02.749Z,67.56
2023-04-21T01:23:30.514Z,67.47
2023-04-21T01:25:58.176Z,67.16
2023-04-21T01:28:25.850Z,67.44
2023-04-21T01:30:53.619Z,67.66
2023-04-21T01:33:21.675Z,67.70
2023-04-21T01:35:49.334Z,67.68
2023-04-21T01:38:19.729Z,67.60
2023-04-21T01:40:47.640Z,67.67
2023-04-21T01:43:15.292Z,67.74
2023-04-21T01:45:43.044Z,67.86
2023-04-21T01:48:10.937Z,67.97
2023-04-21T01:50:38.686Z,67.91
2023-04-21T01:53:06.977Z,67.96
2023-04-21T01:55:34.729Z,67.99
2023-04-21T01:58:02.373Z,67.96
2023-04-21T02:00:30.064Z,68.01
2023-04-21T02:02:57.945Z,68.16
2023-04-21T02:05:25.991Z,68.18
2023-04-21T02:07:53.651Z,68.21
2023-04-21T02:10:21.420Z,68.32
2023-04-21T02:12:49.192Z,68.21
2023-04-21T02:15:16.942Z,68.21
2023-04-21T02:17:45.308Z,68.48
2023-04-21T02:20:13.524Z,68.51
2023-04-21T02:22:41.372Z,68.75
2023-04-21T02:25:09.225Z,68.68
2023-04-21T02:27:36.890Z,68.56
2023-04-21T02:30:04.549Z,68.61
2023-04-21T02:32:32.833Z,68.68
2023-04-21T02:35:00.607Z,68.65
2023-04-21T02:37:28.354Z,68.75
2023-04-21T02:39:56.015Z,68.74
2023-04-21T02:42:23.677Z,68.65
2023-04-21T02:44:51.337Z,68.82
2023-04-21T02:47:19.103Z,68.69
2023-04-21T02:49:46.869Z,68.91
2023-04-21T02:52:14.543Z,68.79
2023-04-21T02:54:42.400Z,69.13
2023-04-21T02:57:10.174Z,69.11
2023-04-21T02:59:37.921Z,68.99
2023-04-21T03:02:05.647Z,69.26
2023-04-21T03:04:34.331Z,69.41
2023-04-21T03:07:02.396Z,69.33
2023-04-21T03:09:30.107Z,69.39
2023-04-21T03:11:57.768Z,69.35
2023-04-21T03:14:25.670Z,69.52
2023-04-21T03:16:53.626Z,69.51
2023-04-21T03:19:21.835Z,69.42
2023-04-21T03:21:49.744Z,69.45
2023-04-21T03:24:17.407Z,69.50
2023-04-21T03:26:45.077Z,69.55
2023-04-21T03:29:12.730Z,69.67
2023-04-21T03:31:40.414Z,69.65
2023-04-21T03:34:08.259Z,69.71
2023-04-21T03:36:36.236Z,69.68
2023-04-21T03:39:20.233Z,69.53
2023-04-21T03:41:48.490Z,69.38
2023-04-21T03:44:16.209Z,69.52
2023-04-21T03:46:43.878Z,69.32
2023-04-21T03:49:11.636Z,69.44
2023-04-21T03:51:39.301Z,69.60
2023-04-21T03:54:07.268Z,69.54
2023-04-21T03:56:34.931Z,69.55
2023-04-21T03:59:02.590Z,69.64
2023-04-21T04:01:30.251Z,69.73
2023-04-21T04:03:58.069Z,69.58
2023-04-21T04:06:26.805Z,69.69
2023-04-21T04:08:54.569Z,69.52
2023-04-21T04:11:22.232Z,69.68
2023-04-21T04:13:49.901Z,69.88
2023-04-21T04:16:18.419Z,70.03
2023-04-21T04:18:46.237Z,69.70
2023-04-21T04:21:13.903Z,69.91
2023-04-21T04:23:41.812Z,70.07
2023-04-21T04:26:09.647Z,70.38
2023-04-21T04:28:37.407Z,70.53
2023-04-21T04:31:05.089Z,70.44
2023-04-21T04:33:32.849Z,70.74
2023-04-21T04:36:00.502Z,70.61
2023-04-21T04:38:28.766Z,70.70
2023-04-21T04:40:57.759Z,70.75
2023-04-21T04:43:25.719Z,70.93
2023-04-21T04:45:53.587Z,70.53
2023-04-21T04:48:21.454Z,70.10
2023-04-21T04:50:49.221Z,69.48
2023-04-21T04:53:16.986Z,69.76
2023-04-21T04:55:44.647Z,70.45
2023-04-21T04:58:12.305Z,70.45
2023-04-21T05:00:39.974Z,70.31
2023-04-21T05:03:07.861Z,70.23
2023-04-21T05:05:35.804Z,70.32
2023-04-21T05:08:03.476Z,70.06
2023-04-21T05:10:31.335Z,69.79
2023-04-21T05:12:58.991Z,69.92
2023-04-21T05:15:26.661Z,69.72
2023-04-21T05:17:54.382Z,69.36
2023-04-21T05:20:22.193Z,69.45
2023-04-21T05:22:49.952Z,68.72
2023-04-21T05:25:17.631Z,68.77
2023-04-21T05:27:45.481Z,68.56
2023-04-21T05:30:13.253Z,68.47
2023-04-21T05:32:41.357Z,68.20
2023-04-21T05:35:09.176Z,67.65
2023-04-21T05:37:36.842Z,67.12
2023-04-21T05:40:04.520Z,67.01
2023-04-21T05:42:32.269Z,66.76
2023-04-21T05:45:00.041Z,66.99
2023-04-21T05:47:27.819Z,66.95
2023-04-21T05:49:55.985Z,66.64
2023-04-21T05:52:23.770Z,66.28
2023-04-21T05:54:51.518Z,66.20
2023-04-21T05:57:19.271Z,66.04
2023-04-21T05:59:47.028Z,65.86
2023-04-21T06:02:14.844Z,65.78
2023-04-21T06:04:42.750Z,65.85
2023-04-21T06:07:13.286Z,65.48
2023-04-21T06:09:41.470Z,65.42
2023-04-21T06:12:09.222Z,65.12
2023-04-21T06:14:36.984Z,65.09
2023-04-21T06:17:04.649Z,64.87
2023-04-21T06:19:32.308Z,64.80
2023-04-21T06:22:00.121Z,64.66
2023-04-21T06:24:27.941Z,64.52
2023-04-21T06:26:56.421Z,64.65
2023-04-21T06:29:24.081Z,64.62
2023-04-21T06:31:51.809Z,64.35
2023-04-21T06:34:21.167Z,64.39
2023-04-21T06:36:49.018Z,64.70
2023-04-21T06:39:16.674Z,64.95
2023-04-21T06:41:44.343Z,64.68
2023-04-21T06:44:15.182Z,64.37
2023-04-21T06:46:42.881Z,64.40
2023-04-21T06:49:10.811Z,64.27
2023-04-21T06:51:38.577Z,64.55
2023-04-21T06:54:06.532Z,64.24
2023-04-21T06:56:34.970Z,64.00
2023-04-21T06:59:02.580Z,64.29
2023-04-21T07:01:30.379Z,64.00
2023-04-21T07:03:58.201Z,64.16
2023-04-21T07:06:26.075Z,64.04
2023-04-21T07:08:53.844Z,64.15
2023-04-21T07:11:21.504Z,63.50
2023-04-21T07:13:49.161Z,63.80
2023-04-21T07:16:16.846Z,63.17
2023-04-21T07:18:44.593Z,63.53
2023-04-21T07:21:12.356Z,63.78
2023-04-21T07:23:40.022Z,63.31
2023-04-21T07:26:07.782Z,63.04
2023-04-21T07:28:35.544Z,62.96
2023-04-21T07:31:03.714Z,62.88
2023-04-21T07:33:31.696Z,62.64
2023-04-21T07:35:59.457Z,62.66
2023-04-21T07:38:30.589Z,62.26
2023-04-21T07:40:58.373Z,62.13
2023-04-21T07:43:27.051Z,62.24
2023-04-21T07:45:54.723Z,61.81
2023-04-21T07:48:22.471Z,61.92
2023-04-21T07:50:50.846Z,62.27
2023-04-21T07:53:18.618Z,62.17
2023-04-21T07:55:46.588Z,61.98
2023-04-21T07:58:14.413Z,61.66
2023-04-21T08:00:42.208Z,60.00
2023-04-21T08:03:10.033Z,59.73
2023-04-21T08:05:40.783Z,59.96
2023-04-21T08:08:09.412Z,58.78
2023-04-21T08:10:37.288Z,57.89
2023-04-21T08:13:06.661Z,58.09
2023-04-21T08:15:35.042Z,55.42
2023-04-21T08:18:02.855Z,56.64
2023-04-21T08:20:30.772Z,56.92
2023-04-21T08:22:58.508Z,57.16
2023-04-21T08:25:26.404Z,56.44
2023-04-21T08:27:54.064Z,54.51
2023-04-21T08:30:21.724Z,55.18
2023-04-21T08:32:49.468Z,55.34
2023-04-21T08:35:17.313Z,55.90
2023-04-21T08:37:45.861Z,53.97
2023-04-21T08:40:13.804Z,54.32
2023-04-21T08:42:41.469Z,53.62
2023-04-21T08:45:09.233Z,53.79
2023-04-21T08:47:37.053Z,53.54
2023-04-21T08:50:04.863Z,53.49
2023-04-21T08:52:32.528Z,52.77
2023-04-21T08:55:00.188Z,53.09
2023-04-21T08:57:27.849Z,52.09
2023-04-21T08:59:55.613Z,52.67
2023-04-21T09:02:23.594Z,51.87
2023-04-21T09:04:52.398Z,51.69
2023-04-21T09:07:20.955Z,52.93
2023-04-21T09:09:48.616Z,53.31
2023-04-21T09:12:16.278Z,52.21
2023-04-21T09:14:43.954Z,51.68
2023-04-21T09:17:11.731Z,52.12
2023-04-21T09:19:39.471Z,51.70
2023-04-21T09:22:07.233Z,50.26
2023-04-21T09:24:35.002Z,50.90
2023-04-21T09:27:02.669Z,50.79
2023-04-21T09:29:30.325Z,50.98
2023-04-21T09:31:58.196Z,50.72
2023-04-21T09:34:25.958Z,49.56
2023-04-21T09:36:53.611Z,49.85
2023-04-21T09:39:38.328Z,46.06
2023-04-21T09:42:08.904Z,44.74
2023-04-21T09:44:50.360Z,45.06
2023-04-21T09:47:22.382Z,46.85
2023-04-21T09:49:50.126Z,47.84
2023-04-21T09:52:19.609Z,43.56
2023-04-21T09:54:47.701Z,45.01
2023-04-21T09:57:15.458Z,45.92
2023-04-21T09:59:43.119Z,45.59
2023-04-21T10:02:11.301Z,45.88
2023-04-21T10:04:39.597Z,45.94
2023-04-21T10:07:07.654Z,46.08
2023-04-21T10:09:36.031Z,45.08
2023-04-21T10:12:04.012Z,45.53
2023-04-21T10:14:31.760Z,45.54
2023-04-21T10:16:59.426Z,45.96
2023-04-21T10:19:27.194Z,46.07
2023-04-21T10:21:54.838Z,46.59
2023-04-21T10:24:22.654Z,45.49
2023-04-21T10:26:51.924Z,42.99
2023-04-21T10:29:21.293Z,41.52
2023-04-21T10:31:49.198Z,44.30
2023-04-21T10:34:17.459Z,44.26
2023-04-21T10:36:45.231Z,43.91
2023-04-21T10:39:13.383Z,41.70
2023-04-21T10:41:41.151Z,40.64
2023-04-21T10:44:08.784Z,43.89
2023-04-21T10:46:36.740Z,44.47
2023-04-21T10:49:04.652Z,44.54
2023-04-21T10:51:33.347Z,45.01
2023-04-21T10:54:01.512Z,44.37
2023-04-21T10:56:29.168Z,42.75
2023-04-21T10:58:57.041Z,44.01
2023-04-21T11:01:25.250Z,43.74
2023-04-21T11:03:54.917Z,43.62
2023-04-21T11:06:22.787Z,43.24
2023-04-21T11:08:51.571Z,39.85
2023-04-21T11:11:19.232Z,41.76
2023-04-21T11:13:46.894Z,41.60
2023-04-21T11:16:14.791Z,42.08
2023-04-21T11:18:42.833Z,42.00
2023-04-21T11:21:10.698Z,41.29
2023-04-21T11:23:38.369Z,41.57
2023-04-21T11:26:06.123Z,41.82
2023-04-21T11:28:33.992Z,40.89
2023-04-21T11:31:01.814Z,41.14
2023-04-21T11:33:30.455Z,41.67
2023-04-21T11:35:59.280Z,40.96
2023-04-21T11:38:27.094Z,40.60
2023-04-21T11:40:55.278Z,40.05
2023-04-21T11:43:23.139Z,40.67
2023-04-21T11:45:51.711Z,40.31
2023-04-21T11:48:19.928Z,40.04
2023-04-21T11:50:47.765Z,39.73
2023-04-21T11:53:15.832Z,35.98
2023-04-21T11:55:43.905Z,37.54
2023-04-21T11:58:12.370Z,38.59
2023-04-21T12:00:41.069Z,38.52
2023-04-21T12:03:08.997Z,39.08
2023-04-21T12:05:37.044Z,39.31
2023-04-21T12:08:06.518Z,37.32
2023-04-21T12:10:34.283Z,36.74
2023-04-21T12:13:02.141Z,35.45
2023-04-21T12:15:29.810Z,35.47
2023-04-21T12:17:57.491Z,37.19
2023-04-21T12:20:25.241Z,37.94
2023-04-21T12:22:53.613Z,37.77
2023-04-21T12:25:21.276Z,38.02
2023-04-21T12:27:49.237Z,37.39
2023-04-21T12:30:17.317Z,37.47
2023-04-21T12:32:45.115Z,37.94
2023-04-21T12:35:12.846Z,35.89
2023-04-21T12:37:40.808Z,35.72
2023-04-21T12:40:08.605Z,37.18
2023-04-21T12:42:38.170Z,36.91
2023-04-21T12:45:06.752Z,37.49
2023-04-21T12:47:34.606Z,37.14
2023-04-21T12:50:02.402Z,36.98
2023-04-21T12:52:30.157Z,36.94
2023-04-21T12:54:57.816Z,37.00
2023-04-21T12:57:25.584Z,36.76
2023-04-21T12:59:53.262Z,36.44
2023-04-21T13:02:21.002Z,36.74
2023-04-21T13:04:48.872Z,35.64
2023-04-21T13:07:16.539Z,35.60
2023-04-21T13:09:44.303Z,34.53
2023-04-21T13:12:12.371Z,32.30
2023-04-21T13:14:40.141Z,33.78
2023-04-21T13:17:07.854Z,35.05
2023-04-21T13:19:35.885Z,35.35
2023-04-21T13:22:03.731Z,34.27
2023-04-21T13:24:31.496Z,34.59
2023-04-21T13:26:59.170Z,33.46
2023-04-21T13:29:30.433Z,31.50
2023-04-21T13:31:58.382Z,33.73
2023-04-21T13:34:26.149Z,35.24
2023-04-21T13:36:54.026Z,35.82
2023-04-21T13:39:22.861Z,35.65
2023-04-21T13:41:53.554Z,35.65
2023-04-21T13:44:22.019Z,35.82
2023-04-21T13:46:52.495Z,35.88
2023-04-21T13:49:21.138Z,35.99
2023-04-21T13:51:48.899Z,34.86
2023-04-21T13:54:16.668Z,34.84
2023-04-21T13:56:44.457Z,35.35
2023-04-21T13:59:14.968Z,34.70
2023-04-21T14:01:42.757Z,34.95
2023-04-21T14:04:11.040Z,34.54
2023-04-21T14:06:38.848Z,34.79
2023-04-21T14:09:06.651Z,35.13
2023-04-21T14:11:34.406Z,34.63
2023-04-21T14:14:09.508Z,34.95
2023-04-21T14:16:38.649Z,34.24
2023-04-21T14:19:06.986Z,34.44
2023-04-21T14:21:34.921Z,34.39
2023-04-21T14:24:02.722Z,34.02
2023-04-21T14:26:30.588Z,34.02
2023-04-21T14:29:00.239Z,34.50
2023-04-21T14:31:27.880Z,34.61
2023-04-21T14:33:55.858Z,34.35
2023-04-21T14:36:23.594Z,33.93
2023-04-21T14:38:51.296Z,32.86
2023-04-21T14:41:18.950Z,34.37
2023-04-21T14:43:47.687Z,33.63
2023-04-21T14:46:17.689Z,32.86
2023-04-21T14:48:45.599Z,33.20
2023-04-21T14:51:13.347Z,33.63
2023-04-21T14:53:41.148Z,34.02
2023-04-21T14:56:08.783Z,34.38
2023-04-21T14:58:36.437Z,34.25
2023-04-21T15:01:04.628Z,34.02
2023-04-21T15:03:32.683Z,34.44
2023-04-21T15:06:00.600Z,33.40
2023-04-21T15:08:28.509Z,32.73
2023-04-21T15:10:56.977Z,32.98
2023-04-21T15:13:24.671Z,34.04
2023-04-21T15:15:52.350Z,34.87
2023-04-21T15:18:21.215Z,35.00
2023-04-21T15:20:48.998Z,34.24
2023-04-21T15:23:16.748Z,34.38
2023-04-21T15:25:44.525Z,34.55
2023-04-21T15:28:13.297Z,34.67
2023-04-21T15:30:41.089Z,34.81
2023-04-21T15:33:08.963Z,35.02
2023-04-21T15:35:36.712Z,34.88
2023-04-21T15:38:06.253Z,34.89
2023-04-21T15:40:34.307Z,35.11
2023-04-21T15:43:02.589Z,35.11
2023-04-21T15:45:30.350Z,34.83
2023-04-21T15:47:58.161Z,34.19
2023-04-21T15:50:26.150Z,34.08
2023-04-21T15:52:53.832Z,34.10
2023-04-21T15:55:21.792Z,33.85
2023-04-21T15:57:49.558Z,33.77
2023-04-21T16:00:17.407Z,34.29
2023-04-21T16:02:45.237Z,33.88
2023-04-21T16:05:13.302Z,33.86
2023-04-21T16:07:43.487Z,34.11
2023-04-21T16:10:11.634Z,33.88
2023-04-21T16:12:39.465Z,33.97
2023-04-21T16:15:22.970Z,33.88
2023-04-21T16:17:51.835Z,34.15
2023-04-21T16:20:19.743Z,33.87
2023-04-21T16:22:47.501Z,33.75
2023-04-21T16:25:17.522Z,33.77
2023-04-21T16:27:45.765Z,33.33
2023-04-21T16:30:13.739Z,33.54
2023-04-21T16:32:41.810Z,33.65
2023-04-21T16:35:10.258Z,33.96
2023-04-21T16:37:40.415Z,33.69
2023-04-21T16:40:09.004Z,33.47
2023-04-21T16:42:36.904Z,33.82
2023-04-21T16:45:04.879Z,33.73
2023-04-21T16:47:34.180Z,34.06
2023-04-21T16:50:02.211Z,34.08
2023-04-21T16:52:30.066Z,34.16
2023-04-21T16:54:58.113Z,34.72
2023-04-21T16:57:25.879Z,35.26
2023-04-21T16:59:53.644Z,35.53
2023-04-21T17:02:21.578Z,35.54
2023-04-21T17:04:49.379Z,36.02
2023-04-21T17:07:17.034Z,36.33
2023-04-21T17:09:45.209Z,36.67
2023-04-21T17:12:12.977Z,37.21
2023-04-21T17:14:40.794Z,37.70
2023-04-21T17:17:08.641Z,38.26
2023-04-21T17:19:36.571Z,38.51
2023-04-21T17:22:04.338Z,38.92
2023-04-21T17:24:45.002Z,38.55
2023-04-21T17:27:19.422Z,39.11
2023-04-21T17:29:47.200Z,39.19
2023-04-21T17:32:15.161Z,39.63
2023-04-21T17:34:43.048Z,39.79
2023-04-21T17:37:10.684Z,39.82
2023-04-21T17:39:38.853Z,39.98
2023-04-21T17:42:06.832Z,40.40
2023-04-21T17:44:34.507Z,40.61
2023-04-21T17:47:03.478Z,40.70
2023-04-21T17:49:31.247Z,40.59
2023-04-21T17:51:59.013Z,40.85
2023-04-21T17:54:26.893Z,41.43
2023-04-21T17:56:54.741Z,41.89
2023-04-21T17:59:22.512Z,41.68
2023-04-21T18:01:50.212Z,41.78
2023-04-21T18:04:18.639Z,42.44
2023-04-21T18:06:46.619Z,42.46
2023-04-21T18:09:14.284Z,43.28
2023-04-21T18:11:42.361Z,43.49
2023-04-21T18:14:10.393Z,43.42
2023-04-21T18:16:38.119Z,43.44
2023-04-21T18:19:05.855Z,43.83
2023-04-21T18:21:33.815Z,43.97
2023-04-21T18:24:03.911Z,44.28
2023-04-21T18:26:33.752Z,44.23
2023-04-21T18:29:03.095Z,44.73
2023-04-21T18:31:31.988Z,44.72
2023-04-21T18:34:00.359Z,44.93
2023-04-21T18:36:30.794Z,45.27
2023-04-21T18:39:00.255Z,45.46
2023-04-21T18:41:28.023Z,45.83
2023-04-21T18:43:55.806Z,46.15
2023-04-21T18:46:23.598Z,46.37
2023-04-21T18:48:51.409Z,46.51
2023-04-21T18:51:19.091Z,46.80
2023-04-21T18:53:46.836Z,46.94
2023-04-21T18:56:14.620Z,47.59
2023-04-21T18:58:42.383Z,47.65
2023-04-21T19:01:10.158Z,47.96
2023-04-21T19:03:38.200Z,48.75
2023-04-21T19:06:06.066Z,48.94
2023-04-21T19:08:42.281Z,48.85
2023-04-21T19:11:10.708Z,49.13
2023-04-21T19:13:38.373Z,49.65
2023-04-21T19:16:06.291Z,49.87
2023-04-21T19:18:34.205Z,50.14
2023-04-21T19:21:01.876Z,50.49
2023-04-21T19:23:29.533Z,50.38
2023-04-21T19:25:57.734Z,50.49
2023-04-21T19:28:25.571Z,50.80
2023-04-21T19:30:53.204Z,50.38
2023-04-21T19:33:20.978Z,50.90
2023-04-21T19:35:49.167Z,50.77
2023-04-21T19:38:16.936Z,50.70
2023-04-21T19:40:45.199Z,50.73
2023-04-21T19:43:15.240Z,50.70
2023-04-21T19:45:43.182Z,50.77
2023-04-21T19:48:11.384Z,51.20
2023-04-21T19:50:39.143Z,51.39
2023-04-21T19:53:06.796Z,51.56
2023-04-21T19:55:34.568Z,51.70
2023-04-21T19:58:02.430Z,52.39
2023-04-21T20:00:30.194Z,52.49
2023-04-21T20:02:58.108Z,52.27
2023-04-21T20:05:26.137Z,52.16
2023-04-21T20:07:54.000Z,52.41
2023-04-21T20:10:22.372Z,52.26
2023-04-21T20:12:50.037Z,52.08
2023-04-21T20:15:17.806Z,52.20
2023-04-21T20:17:47.755Z,52.26
2023-04-21T20:20:16.581Z,52.21
2023-04-21T20:22:44.277Z,51.66
2023-04-21T20:25:13.167Z,51.79
2023-04-21T20:27:41.123Z,52.08
2023-04-21T20:30:08.895Z,51.92
2023-04-21T20:32:36.890Z,52.29
2023-04-21T20:35:05.662Z,52.49
2023-04-21T20:37:33.720Z,52.76
2023-04-21T20:40:03.634Z,53.04
2023-04-21T20:42:31.396Z,53.52
2023-04-21T20:45:02.458Z,53.43
2023-04-21T20:47:30.520Z,53.71
2023-04-21T20:49:59.191Z,53.73
2023-04-21T20:52:27.065Z,53.73
2023-04-21T20:54:54.840Z,53.95
2023-04-21T20:57:22.698Z,54.41
2023-04-21T20:59:50.354Z,54.20
2023-04-21T21:02:18.186Z,54.39
2023-04-21T21:04:47.418Z,54.77
2023-04-21T21:07:15.183Z,54.99
2023-04-21T21:09:42.946Z,54.99
2023-04-21T21:12:10.608Z,55.09
2023-04-21T21:14:38.284Z,55.44
2023-04-21T21:17:06.343Z,55.39
2023-04-21T21:19:34.215Z,55.53
2023-04-21T21:22:01.865Z,55.39
2023-04-21T21:24:29.534Z,55.48
2023-04-21T21:26:58.418Z,55.69
2023-04-21T21:29:26.285Z,55.72
2023-04-21T21:31:54.322Z,55.93
2023-04-21T21:34:22.225Z,56.26
2023-04-21T21:36:49.889Z,56.20
2023-04-21T21:39:17.754Z,56.37
2023-04-21T21:41:45.515Z,56.16
2023-04-21T21:44:13.287Z,56.28
2023-04-21T21:46:41.476Z,56.04
2023-04-21T21:49:09.423Z,56.27
2023-04-21T21:51:37.097Z,56.42
2023-04-21T21:54:05.773Z,56.42
2023-04-21T21:56:33.432Z,56.59
2023-04-21T21:59:01.213Z,56.69
2023-04-21T22:41:13.978Z,56.57
2023-04-21T22:43:41.738Z,56.65
2023-04-21T22:46:09.509Z,56.63
2023-04-21T22:48:38.495Z,56.68
2023-04-21T22:51:06.573Z,56.88
2023-04-21T22:53:34.347Z,56.66
2023-04-21T22:56:02.105Z,56.80
2023-04-21T22:58:29.865Z,56.89
2023-04-21T23:00:57.545Z,56.54
2023-04-21T23:03:25.623Z,56.51
2023-04-21T23:05:53.561Z,56.59
2023-04-21T23:08:21.330Z,56.57
2023-04-21T23:10:49.096Z,56.56
2023-04-21T23:13:16.860Z,56.52
2023-04-21T23:15:44.526Z,56.87
2023-04-21T23:18:12.280Z,56.69
2023-04-21T23:20:39.953Z,56.68
2023-04-21T23:23:07.677Z,56.62
2023-04-21T23:25:36.398Z,56.66
2023-04-21T23:28:04.181Z,56.80
2023-04-21T23:30:31.924Z,56.83
2023-04-21T23:32:59.679Z,56.83
2023-04-21T23:35:27.563Z,56.69
2023-04-21T23:37:55.317Z,56.77
2023-04-21T23:40:23.080Z,56.61
2023-04-21T23:42:50.842Z,56.63
2023-04-21T23:45:18.606Z,56.82
2023-04-21T23:47:46.382Z,56.66
2023-04-21T23:50:14.142Z,56.98
2023-04-21T23:52:43.332Z,57.16
2023-04-21T23:55:12.426Z,57.24
2023-04-21T23:57:40.323Z,57.30
